sensor_id;sensor_type;location;lat;lon;timestamp;temperature;humidity
16674;DHT22;8450;52.654;10.326;2022-11-23T08:03:11;3.70;99.90
16674;DHT22;8450;52.654;10.326;2022-11-23T08:05:38;3.70;99.90
16674;DHT22;8450;52.654;10.326;2022-11-23T08:08:03;3.70;99.90
16674;DHT22;8450;52.654;10.326;2022-11-23T08:10:30;3.70;99.90
16674;DHT22;8450;52.654;10.326;2022-11-23T08:13:04;3.70;99.90
16674;DHT22;8450;52.654;10.326;2022-11-23T08:15:30;3.80;99.90
16674;DHT22;8450;52.654;10.326;2022-11-23T08:17:57;3.80;99.90
16674;DHT22;8450;52.654;10.326;2022-11-23T08:20:23;3.80;99.90
16674;DHT22;8450;52.654;10.326;2022-11-23T08:22:49;3.80;99.90
16674;DHT22;8450;52.654;10.326;2022-11-23T08:25:15;3.80;99.90
16674;DHT22;8450;52.654;10.326;2022-11-23T08:27:40;3.80;99.90
16674;DHT22;8450;52.654;10.326;2022-11-23T08:30:06;3.90;99.90
16674;DHT22;8450;52.654;10.326;2022-11-23T08:32:32;3.90;99.90
16674;DHT22;8450;52.654;10.326;2022-11-23T08:34:58;3.90;99.90
16674;DHT22;8450;52.654;10.326;2022-11-23T08:37:23;3.90;99.90
16674;DHT22;8450;52.654;10.326;2022-11-23T08:39:49;3.90;99.90
16674;DHT22;8450;52.654;10.326;2022-11-23T08:42:14;4.00;99.90
16674;DHT22;8450;52.654;10.326;2022-11-23T08:44:40;4.00;99.90
16674;DHT22;8450;52.654;10.326;2022-11-23T08:47:05;4.00;99.90
16674;DHT22;8450;52.654;10.326;2022-11-23T08:49:31;4.00;99.90
16674;DHT22;8450;52.654;10.326;2022-11-23T08:57:20;4.20;99.90
16674;DHT22;8450;52.654;10.326;2022-11-23T08:59:45;4.20;99.90
16674;DHT22;8450;52.654;10.326;2022-11-23T09:02:12;4.30;99.90
16674;DHT22;8450;52.654;10.326;2022-11-23T09:04:41;4.30;99.90
16674;DHT22;8450;52.654;10.326;2022-11-23T09:07:07;4.40;99.90
16674;DHT22;8450;52.654;10.326;2022-11-23T09:09:32;4.40;99.90
16674;DHT22;8450;52.654;10.326;2022-11-23T09:11:58;4.50;99.90
16674;DHT22;8450;52.654;10.326;2022-11-23T09:14:23;4.60;99.90
16674;DHT22;8450;52.654;10.326;2022-11-23T09:16:49;4.60;99.90
16674;DHT22;8450;52.654;10.326;2022-11-23T09:19:15;4.70;99.90
16674;DHT22;8450;52.654;10.326;2022-11-23T09:24:20;4.80;99.90
16674;DHT22;8450;52.654;10.326;2022-11-23T09:26:47;4.90;99.90
16674;DHT22;8450;52.654;10.326;2022-11-23T09:29:12;4.90;99.90
16674;DHT22;8450;52.654;10.326;2022-11-23T09:31:38;5.00;99.90
16674;DHT22;8450;52.654;10.326;2022-11-23T09:34:04;5.10;99.90
16674;DHT22;8450;52.654;10.326;2022-11-23T09:36:30;5.10;99.90
16674;DHT22;8450;52.654;10.326;2022-11-23T09:38:55;5.20;99.90
16674;DHT22;8450;52.654;10.326;2022-11-23T09:48:09;5.40;99.90
16674;DHT22;8450;52.654;10.326;2022-11-23T09:50:58;5.40;99.90
16674;DHT22;8450;52.654;10.326;2022-11-23T09:53:54;5.50;99.90
16674;DHT22;8450;52.654;10.326;2022-11-23T09:56:29;5.60;99.90
16674;DHT22;8450;52.654;10.326;2022-11-23T09:59:01;5.60;99.90
16674;DHT22;8450;52.654;10.326;2022-11-23T10:01:28;5.60;99.90
16674;DHT22;8450;52.654;10.326;2022-11-23T10:03:55;5.70;99.90
16674;DHT22;8450;52.654;10.326;2022-11-23T10:06:24;5.80;99.90
16674;DHT22;8450;52.654;10.326;2022-11-23T10:09:05;5.80;99.90
16674;DHT22;8450;52.654;10.326;2022-11-23T10:20:00;6.00;99.90
16674;DHT22;8450;52.654;10.326;2022-11-23T10:22:39;6.10;99.90
16674;DHT22;8450;52.654;10.326;2022-11-23T10:25:15;6.20;99.90
16674;DHT22;8450;52.654;10.326;2022-11-23T10:27:41;6.20;99.90
16674;DHT22;8450;52.654;10.326;2022-11-23T10:30:11;6.30;99.90
16674;DHT22;8450;52.654;10.326;2022-11-23T10:32:43;6.40;99.90
16674;DHT22;8450;52.654;10.326;2022-11-23T10:37:41;6.50;99.90
16674;DHT22;8450;52.654;10.326;2022-11-23T10:40:27;6.50;99.90
16674;DHT22;8450;52.654;10.326;2022-11-23T10:42:57;6.60;99.90
16674;DHT22;8450;52.654;10.326;2022-11-23T10:45:28;6.70;99.90
16674;DHT22;8450;52.654;10.326;2022-11-23T10:47:56;6.70;99.90
16674;DHT22;8450;52.654;10.326;2022-11-23T10:50:30;6.80;99.90
16674;DHT22;8450;52.654;10.326;2022-11-23T10:53:20;6.90;99.90
16674;DHT22;8450;52.654;10.326;2022-11-23T10:55:56;7.00;99.90
16674;DHT22;8450;52.654;10.326;2022-11-23T10:58:27;7.10;99.90
16674;DHT22;8450;52.654;10.326;2022-11-23T11:01:01;7.10;99.90
16674;DHT22;8450;52.654;10.326;2022-11-23T11:03:30;7.20;99.90
16674;DHT22;8450;52.654;10.326;2022-11-23T11:05:57;7.20;99.90
16674;DHT22;8450;52.654;10.326;2022-11-23T11:08:28;7.30;99.90
16674;DHT22;8450;52.654;10.326;2022-11-23T11:11:09;7.30;99.90
16674;DHT22;8450;52.654;10.326;2022-11-23T11:13:47;7.40;99.90
16674;DHT22;8450;52.654;10.326;2022-11-23T11:18:46;7.50;99.90
16674;DHT22;8450;52.654;10.326;2022-11-23T11:21:22;7.60;99.90
16674;DHT22;8450;52.654;10.326;2022-11-23T11:24:02;7.60;99.90
16674;DHT22;8450;52.654;10.326;2022-11-23T11:26:30;7.70;99.90
16674;DHT22;8450;52.654;10.326;2022-11-23T11:28:59;7.70;99.90
16674;DHT22;8450;52.654;10.326;2022-11-23T11:31:44;7.80;99.90
16674;DHT22;8450;52.654;10.326;2022-11-23T11:34:25;7.80;99.90
16674;DHT22;8450;52.654;10.326;2022-11-23T11:39:44;7.80;99.90
16674;DHT22;8450;52.654;10.326;2022-11-23T11:42:26;7.80;99.90
16674;DHT22;8450;52.654;10.326;2022-11-23T11:44:55;7.80;99.90
16674;DHT22;8450;52.654;10.326;2022-11-23T11:47:36;7.90;99.90
16674;DHT22;8450;52.654;10.326;2022-11-23T11:50:21;7.90;99.90
16674;DHT22;8450;52.654;10.326;2022-11-23T11:52:51;7.90;99.90
16674;DHT22;8450;52.654;10.326;2022-11-23T11:55:25;7.90;99.90
16674;DHT22;8450;52.654;10.326;2022-11-23T11:58:03;7.90;99.90
16674;DHT22;8450;52.654;10.326;2022-11-23T12:00:33;8.00;99.90
16674;DHT22;8450;52.654;10.326;2022-11-23T12:06:12;8.00;99.90
16674;DHT22;8450;52.654;10.326;2022-11-23T12:08:49;8.00;99.90
16674;DHT22;8450;52.654;10.326;2022-11-23T12:11:18;8.00;99.90
16674;DHT22;8450;52.654;10.326;2022-11-23T12:13:44;8.00;99.90
16674;DHT22;8450;52.654;10.326;2022-11-23T12:16:58;8.00;99.90
16674;DHT22;8450;52.654;10.326;2022-11-23T12:27:27;8.10;99.90
16674;DHT22;8450;52.654;10.326;2022-11-23T12:30:23;8.10;99.90
16674;DHT22;8450;52.654;10.326;2022-11-23T12:41:49;8.10;99.90
16674;DHT22;8450;52.654;10.326;2022-11-23T12:44:37;8.10;99.90
16674;DHT22;8450;52.654;10.326;2022-11-23T12:53:23;8.10;99.90
16674;DHT22;8450;52.654;10.326;2022-11-23T12:56:11;8.10;99.90
16674;DHT22;8450;52.654;10.326;2022-11-23T12:58:43;8.10;99.90
16674;DHT22;8450;52.654;10.326;2022-11-23T13:09:32;8.00;99.90
16674;DHT22;8450;52.654;10.326;2022-11-23T13:17:52;7.90;99.90
16674;DHT22;8450;52.654;10.326;2022-11-23T13:23:12;7.90;99.90
16674;DHT22;8450;52.654;10.326;2022-11-23T13:25:38;7.90;99.90
16674;DHT22;8450;52.654;10.326;2022-11-23T13:28:28;7.90;99.90
16674;DHT22;8450;52.654;10.326;2022-11-23T13:33:40;7.90;99.90
16674;DHT22;8450;52.654;10.326;2022-11-23T13:36:09;8.00;99.90
16674;DHT22;8450;52.654;10.326;2022-11-23T13:38:40;8.00;99.90
16674;DHT22;8450;52.654;10.326;2022-11-23T13:43:48;8.00;99.90
16674;DHT22;8450;52.654;10.326;2022-11-23T13:46:25;8.00;99.90
16674;DHT22;8450;52.654;10.326;2022-11-23T13:48:55;8.10;99.90
16674;DHT22;8450;52.654;10.326;2022-11-23T14:08:44;8.20;99.90
16674;DHT22;8450;52.654;10.326;2022-11-23T14:13:56;8.10;99.90
16674;DHT22;8450;52.654;10.326;2022-11-23T14:16:47;8.10;99.90
16674;DHT22;8450;52.654;10.326;2022-11-23T14:22:33;8.00;99.90
16674;DHT22;8450;52.654;10.326;2022-11-23T14:41:33;7.90;99.90
